createdAt,value
2022-11-10T00:00:23.000Z,11.81
2022-11-10T00:01:23.000Z,11.81
2022-11-10T00:02:23.000Z,11.81
2022-11-10T00:03:23.000Z,11.77
2022-11-10T00:04:23.000Z,11.75
2022-11-10T00:05:23.000Z,11.77
2022-11-10T00:06:23.000Z,11.72
2022-11-10T00:07:23.000Z,11.72
2022-11-10T00:08:23.000Z,11.75
2022-11-10T00:09:23.000Z,11.72
2022-11-10T00:10:23.000Z,11.72
2022-11-10T00:11:23.000Z,11.70
2022-11-10T00:12:23.000Z,11.75
2022-11-10T00:13:23.000Z,11.77
2022-11-10T00:14:23.000Z,11.79
2022-11-10T00:15:23.000Z,11.79
2022-11-10T00:16:23.000Z,11.79
2022-11-10T00:17:23.000Z,11.82
2022-11-10T00:18:23.000Z,11.81
2022-11-10T00:19:23.000Z,11.82
2022-11-10T00:20:23.000Z,11.81
2022-11-10T00:21:23.000Z,11.78
2022-11-10T00:22:23.000Z,11.78
2022-11-10T00:23:23.000Z,11.77
2022-11-10T00:24:23.000Z,11.77
2022-11-10T00:25:23.000Z,11.74
2022-11-10T00:26:23.000Z,11.72
2022-11-10T00:27:23.000Z,11.67
2022-11-10T00:28:23.000Z,11.64
2022-11-10T00:29:23.000Z,11.63
2022-11-10T00:30:23.000Z,11.64
2022-11-10T00:31:23.000Z,11.62
2022-11-10T00:32:23.000Z,11.62
2022-11-10T00:33:23.000Z,11.62
2022-11-10T00:34:23.000Z,11.60
2022-11-10T00:35:23.000Z,11.59
2022-11-10T00:36:23.000Z,11.57
2022-11-10T00:37:23.000Z,11.54
2022-11-10T00:38:23.000Z,11.53
2022-11-10T00:39:23.000Z,11.54
2022-11-10T00:40:23.000Z,11.46
2022-11-10T00:41:23.000Z,11.48
2022-11-10T00:42:23.000Z,11.46
2022-11-10T00:43:23.000Z,11.44
2022-11-10T00:44:23.000Z,11.44
2022-11-10T00:45:23.000Z,11.41
2022-11-10T00:46:23.000Z,11.41
2022-11-10T00:47:23.000Z,11.38
2022-11-10T00:48:23.000Z,11.35
2022-11-10T00:49:23.000Z,11.39
2022-11-10T00:50:22.000Z,11.33
2022-11-10T00:51:22.000Z,11.35
2022-11-10T00:52:22.000Z,11.30
2022-11-10T00:53:22.000Z,11.27
2022-11-10T00:54:22.000Z,11.27
2022-11-10T00:55:22.000Z,11.28
2022-11-10T00:56:22.000Z,11.27
2022-11-10T00:57:22.000Z,11.28
2022-11-10T00:58:22.000Z,11.28
2022-11-10T00:59:22.000Z,11.26
2022-11-10T01:00:22.000Z,11.27
2022-11-10T01:01:22.000Z,11.27
2022-11-10T01:02:22.000Z,11.28
2022-11-10T01:03:22.000Z,11.28
2022-11-10T01:04:22.000Z,11.33
2022-11-10T01:05:22.000Z,11.31
2022-11-10T01:06:22.000Z,11.27
2022-11-10T01:07:22.000Z,11.30
2022-11-10T01:08:22.000Z,11.31
2022-11-10T01:09:22.000Z,11.26
2022-11-10T01:10:22.000Z,11.26
2022-11-10T01:11:22.000Z,11.26
2022-11-10T01:12:22.000Z,11.27
2022-11-10T01:13:22.000Z,11.24
2022-11-10T01:14:22.000Z,11.23
2022-11-10T01:15:22.000Z,11.24
2022-11-10T01:16:22.000Z,11.21
2022-11-10T01:17:22.000Z,11.24
2022-11-10T01:18:22.000Z,11.21
2022-11-10T01:19:22.000Z,11.24
2022-11-10T01:20:22.000Z,11.19
2022-11-10T01:21:22.000Z,11.16
2022-11-10T01:22:22.000Z,11.17
2022-11-10T01:23:22.000Z,11.21
2022-11-10T01:24:22.000Z,11.20
2022-11-10T01:25:22.000Z,11.17
2022-11-10T01:26:22.000Z,11.16
2022-11-10T01:27:22.000Z,11.16
2022-11-10T01:28:22.000Z,11.13
2022-11-10T01:29:22.000Z,11.17
2022-11-10T01:30:22.000Z,11.13
2022-11-10T01:31:22.000Z,11.11
2022-11-10T01:32:22.000Z,11.13
2022-11-10T01:33:22.000Z,11.13
2022-11-10T01:34:22.000Z,11.13
2022-11-10T01:35:22.000Z,11.09
2022-11-10T01:36:22.000Z,11.11
2022-11-10T01:37:22.000Z,11.09
2022-11-10T01:38:22.000Z,11.05
2022-11-10T01:39:22.000Z,11.06
2022-11-10T01:40:22.000Z,11.05
2022-11-10T01:41:22.000Z,11.05
2022-11-10T01:42:22.000Z,11.01
2022-11-10T01:43:22.000Z,11.05
2022-11-10T01:44:22.000Z,10.98
2022-11-10T01:45:22.000Z,10.95
2022-11-10T01:46:22.000Z,10.94
2022-11-10T01:47:22.000Z,10.93
2022-11-10T01:48:22.000Z,10.91
2022-11-10T01:49:22.000Z,10.88
2022-11-10T01:50:22.000Z,10.88
2022-11-10T01:51:22.000Z,10.86
2022-11-10T01:52:22.000Z,10.87
2022-11-10T01:53:22.000Z,10.83
2022-11-10T01:54:22.000Z,10.83
2022-11-10T01:55:22.000Z,10.83
2022-11-10T01:56:22.000Z,10.83
2022-11-10T01:57:22.000Z,10.81
2022-11-10T01:58:22.000Z,10.84
2022-11-10T01:59:22.000Z,10.81
2022-11-10T02:00:22.000Z,10.83
2022-11-10T02:01:22.000Z,10.78
2022-11-10T02:02:22.000Z,10.78
2022-11-10T02:03:22.000Z,10.75
2022-11-10T02:04:21.000Z,10.73
2022-11-10T02:05:21.000Z,10.73
2022-11-10T02:06:21.000Z,10.70
2022-11-10T02:07:21.000Z,10.72
2022-11-10T02:08:21.000Z,10.70
2022-11-10T02:09:21.000Z,10.70
2022-11-10T02:10:21.000Z,10.70
2022-11-10T02:11:21.000Z,10.68
2022-11-10T02:12:21.000Z,10.68
2022-11-10T02:13:21.000Z,10.68
2022-11-10T02:14:21.000Z,10.65
2022-11-10T02:15:21.000Z,10.65
2022-11-10T02:16:21.000Z,10.62
2022-11-10T02:17:21.000Z,10.63
2022-11-10T02:18:21.000Z,10.63
2022-11-10T02:19:21.000Z,10.55
2022-11-10T02:20:21.000Z,10.63
2022-11-10T02:21:21.000Z,10.55
2022-11-10T02:22:21.000Z,10.55
2022-11-10T02:23:21.000Z,10.58
2022-11-10T02:24:21.000Z,10.52
2022-11-10T02:25:21.000Z,10.52
2022-11-10T02:26:21.000Z,10.47
2022-11-10T02:27:21.000Z,10.49
2022-11-10T02:28:21.000Z,10.47
2022-11-10T02:29:21.000Z,10.47
2022-11-10T02:30:21.000Z,10.46
2022-11-10T02:31:21.000Z,10.46
2022-11-10T02:32:21.000Z,10.44
2022-11-10T02:33:21.000Z,10.43
2022-11-10T02:34:21.000Z,10.42
2022-11-10T02:35:21.000Z,10.43
2022-11-10T02:36:21.000Z,10.47
2022-11-10T02:37:21.000Z,10.42
2022-11-10T02:38:21.000Z,10.39
2022-11-10T02:39:21.000Z,10.38
2022-11-10T02:40:21.000Z,10.36
2022-11-10T02:41:21.000Z,10.34
2022-11-10T02:42:21.000Z,10.32
2022-11-10T02:43:21.000Z,10.32
2022-11-10T02:44:21.000Z,10.32
2022-11-10T02:45:21.000Z,10.31
2022-11-10T02:46:21.000Z,10.29
2022-11-10T02:47:21.000Z,10.28
2022-11-10T02:48:21.000Z,10.25
2022-11-10T02:49:21.000Z,10.24
2022-11-10T02:50:21.000Z,10.24
2022-11-10T02:51:21.000Z,10.20
2022-11-10T02:52:21.000Z,10.18
2022-11-10T02:53:21.000Z,10.20
2022-11-10T02:54:21.000Z,10.16
2022-11-10T02:55:21.000Z,10.16
2022-11-10T02:56:21.000Z,10.16
2022-11-10T02:57:21.000Z,10.17
2022-11-10T02:58:21.000Z,10.16
2022-11-10T02:59:21.000Z,10.16
2022-11-10T03:00:21.000Z,10.16
2022-11-10T03:01:21.000Z,10.13
2022-11-10T03:02:21.000Z,10.14
2022-11-10T03:03:21.000Z,10.16
2022-11-10T03:04:21.000Z,10.14
2022-11-10T03:05:21.000Z,10.17
2022-11-10T03:06:21.000Z,10.16
2022-11-10T03:07:21.000Z,10.13
2022-11-10T03:08:21.000Z,10.17
2022-11-10T03:09:21.000Z,10.16
2022-11-10T03:10:21.000Z,10.14
2022-11-10T03:11:21.000Z,10.13
2022-11-10T03:12:21.000Z,10.11
2022-11-10T03:13:21.000Z,10.13
2022-11-10T03:14:21.000Z,10.13
2022-11-10T03:15:21.000Z,10.13
2022-11-10T03:16:21.000Z,10.13
2022-11-10T03:17:21.000Z,10.11
2022-11-10T03:18:21.000Z,10.14
2022-11-10T03:19:20.000Z,10.13
2022-11-10T03:20:20.000Z,10.10
2022-11-10T03:21:20.000Z,10.07
2022-11-10T03:22:20.000Z,10.09
2022-11-10T03:23:20.000Z,10.09
2022-11-10T03:24:20.000Z,10.09
2022-11-10T03:25:20.000Z,10.06
2022-11-10T03:26:20.000Z,10.04
2022-11-10T03:27:20.000Z,9.99
2022-11-10T03:28:20.000Z,10.02
2022-11-10T03:29:20.000Z,10.02
2022-11-10T03:30:20.000Z,9.98
2022-11-10T03:31:20.000Z,10.01
2022-11-10T03:32:20.000Z,10.02
2022-11-10T03:33:20.000Z,10.01
2022-11-10T03:34:20.000Z,9.99
2022-11-10T03:35:20.000Z,10.01
2022-11-10T03:36:20.000Z,9.99
2022-11-10T03:37:20.000Z,9.98
2022-11-10T03:38:20.000Z,9.98
2022-11-10T03:39:20.000Z,9.99
2022-11-10T03:40:20.000Z,9.93
2022-11-10T03:41:20.000Z,9.95
2022-11-10T03:42:20.000Z,9.95
2022-11-10T03:43:20.000Z,9.95
2022-11-10T03:44:20.000Z,9.92
2022-11-10T03:45:20.000Z,9.93
2022-11-10T03:46:20.000Z,9.91
2022-11-10T03:47:20.000Z,9.89
2022-11-10T03:48:20.000Z,9.93
2022-11-10T03:49:20.000Z,9.91
2022-11-10T03:50:20.000Z,9.86
2022-11-10T03:51:20.000Z,9.83
2022-11-10T03:52:20.000Z,9.83
2022-11-10T03:53:20.000Z,9.81
2022-11-10T03:54:20.000Z,9.85
2022-11-10T03:55:20.000Z,9.83
2022-11-10T03:56:20.000Z,9.81
2022-11-10T03:57:20.000Z,9.80
2022-11-10T03:58:20.000Z,9.83
2022-11-10T03:59:20.000Z,9.81
2022-11-10T04:00:20.000Z,9.81
2022-11-10T04:01:20.000Z,9.81
2022-11-10T04:02:20.000Z,9.78
2022-11-10T04:03:20.000Z,9.80
2022-11-10T04:04:20.000Z,9.81
2022-11-10T04:05:20.000Z,9.85
2022-11-10T04:06:20.000Z,9.85
2022-11-10T04:07:20.000Z,9.88
2022-11-10T04:08:20.000Z,9.91
2022-11-10T04:09:20.000Z,9.88
2022-11-10T04:10:20.000Z,9.88
2022-11-10T04:11:20.000Z,9.93
2022-11-10T04:12:20.000Z,9.91
2022-11-10T04:13:20.000Z,9.91
2022-11-10T04:14:20.000Z,9.95
2022-11-10T04:15:20.000Z,9.98
2022-11-10T04:16:20.000Z,9.95
2022-11-10T04:17:20.000Z,9.96
2022-11-10T04:18:20.000Z,9.98
2022-11-10T04:19:20.000Z,9.95
2022-11-10T04:20:20.000Z,9.95
2022-11-10T04:21:20.000Z,9.95
2022-11-10T04:22:20.000Z,9.92
2022-11-10T04:23:20.000Z,9.95
2022-11-10T04:24:20.000Z,9.92
2022-11-10T04:25:20.000Z,9.92
2022-11-10T04:26:20.000Z,9.86
2022-11-10T04:27:20.000Z,9.89
2022-11-10T04:28:20.000Z,9.85
2022-11-10T04:29:20.000Z,9.88
2022-11-10T04:30:20.000Z,9.85
2022-11-10T04:31:20.000Z,9.85
2022-11-10T04:32:20.000Z,9.81
2022-11-10T04:33:19.000Z,9.80
2022-11-10T04:34:19.000Z,9.78
2022-11-10T04:35:19.000Z,9.81
2022-11-10T04:36:19.000Z,9.75
2022-11-10T04:37:19.000Z,9.74
2022-11-10T04:38:19.000Z,9.73
2022-11-10T04:39:19.000Z,9.75
2022-11-10T04:40:19.000Z,9.70
2022-11-10T04:41:19.000Z,9.70
2022-11-10T04:42:19.000Z,9.67
2022-11-10T04:43:19.000Z,9.65
2022-11-10T04:44:19.000Z,9.65
2022-11-10T04:45:19.000Z,9.63
2022-11-10T04:46:19.000Z,9.59
2022-11-10T04:47:19.000Z,9.59
2022-11-10T04:48:19.000Z,9.56
2022-11-10T04:49:19.000Z,9.56
2022-11-10T04:50:19.000Z,9.56
2022-11-10T04:51:19.000Z,9.55
2022-11-10T04:52:19.000Z,9.52
2022-11-10T04:53:19.000Z,9.55
2022-11-10T04:54:19.000Z,9.52
2022-11-10T04:55:19.000Z,9.53
2022-11-10T04:56:19.000Z,9.55
2022-11-10T04:57:19.000Z,9.53
2022-11-10T04:58:19.000Z,9.50
2022-11-10T04:59:19.000Z,9.49
2022-11-10T05:00:19.000Z,9.44
2022-11-10T05:01:19.000Z,9.45
2022-11-10T05:02:19.000Z,9.44
2022-11-10T05:03:19.000Z,9.40
2022-11-10T05:04:19.000Z,9.38
2022-11-10T05:05:19.000Z,9.38
2022-11-10T05:06:19.000Z,9.35
2022-11-10T05:07:19.000Z,9.35
2022-11-10T05:08:19.000Z,9.32
2022-11-10T05:09:19.000Z,9.31
2022-11-10T05:10:19.000Z,9.27
2022-11-10T05:11:19.000Z,9.27
2022-11-10T05:12:19.000Z,9.22
2022-11-10T05:13:19.000Z,9.23
2022-11-10T05:14:19.000Z,9.22
2022-11-10T05:15:19.000Z,9.17
2022-11-10T05:16:19.000Z,9.17
2022-11-10T05:17:19.000Z,9.15
2022-11-10T05:18:19.000Z,9.16
2022-11-10T05:19:19.000Z,9.12
2022-11-10T05:20:19.000Z,9.10
2022-11-10T05:21:19.000Z,9.06
2022-11-10T05:22:19.000Z,9.06
2022-11-10T05:23:19.000Z,9.08
2022-11-10T05:24:19.000Z,9.01
2022-11-10T05:25:19.000Z,9.04
2022-11-10T05:26:19.000Z,9.03
2022-11-10T05:27:19.000Z,9.00
2022-11-10T05:28:19.000Z,8.96
2022-11-10T05:29:19.000Z,8.94
2022-11-10T05:30:19.000Z,8.93
2022-11-10T05:31:19.000Z,8.89
2022-11-10T05:32:19.000Z,8.89
2022-11-10T05:33:19.000Z,8.86
2022-11-10T05:34:19.000Z,8.83
2022-11-10T05:35:19.000Z,8.85
2022-11-10T05:36:19.000Z,8.82
2022-11-10T05:37:19.000Z,8.80
2022-11-10T05:38:19.000Z,8.80
2022-11-10T05:39:19.000Z,8.80
2022-11-10T05:40:19.000Z,8.78
2022-11-10T05:41:19.000Z,8.79
2022-11-10T05:42:19.000Z,8.76
2022-11-10T05:43:19.000Z,8.73
2022-11-10T05:44:19.000Z,8.71
2022-11-10T05:45:19.000Z,8.73
2022-11-10T05:46:18.000Z,8.78
2022-11-10T05:47:18.000Z,8.73
2022-11-10T05:48:18.000Z,8.76
2022-11-10T05:49:18.000Z,8.75
2022-11-10T05:50:18.000Z,8.75
2022-11-10T05:51:18.000Z,8.78
2022-11-10T05:52:18.000Z,8.79
2022-11-10T05:53:18.000Z,8.82
2022-11-10T05:54:18.000Z,8.80
2022-11-10T05:55:18.000Z,8.82
2022-11-10T05:56:18.000Z,8.80
2022-11-10T05:57:18.000Z,8.83
2022-11-10T05:58:18.000Z,8.85
2022-11-10T05:59:18.000Z,8.85
2022-11-10T06:00:18.000Z,8.83
2022-11-10T06:01:18.000Z,8.86
2022-11-10T06:02:18.000Z,8.86
2022-11-10T06:03:18.000Z,8.89
2022-11-10T06:04:18.000Z,8.85
2022-11-10T06:05:18.000Z,8.88
2022-11-10T06:06:18.000Z,8.91
2022-11-10T06:07:18.000Z,8.94
2022-11-10T06:08:18.000Z,8.98
2022-11-10T06:09:18.000Z,9.01
2022-11-10T06:10:18.000Z,9.04
2022-11-10T06:11:18.000Z,9.04
2022-11-10T06:12:18.000Z,9.10
2022-11-10T06:13:18.000Z,9.06
2022-11-10T06:14:18.000Z,9.06
2022-11-10T06:15:18.000Z,9.10
2022-11-10T06:16:18.000Z,9.08
2022-11-10T06:17:18.000Z,9.08
2022-11-10T06:18:18.000Z,9.12
2022-11-10T06:19:18.000Z,9.12
2022-11-10T06:20:18.000Z,9.15
2022-11-10T06:21:18.000Z,9.12
2022-11-10T06:22:18.000Z,9.10
2022-11-10T06:23:18.000Z,9.13
2022-11-10T06:24:18.000Z,9.10
2022-11-10T06:25:18.000Z,9.12
2022-11-10T06:26:18.000Z,9.08
2022-11-10T06:27:18.000Z,9.04
2022-11-10T06:28:18.000Z,9.03
2022-11-10T06:29:18.000Z,9.06
2022-11-10T06:30:18.000Z,9.03
2022-11-10T06:31:18.000Z,8.98
2022-11-10T06:32:18.000Z,8.98
2022-11-10T06:33:18.000Z,8.97
2022-11-10T06:34:18.000Z,8.97
2022-11-10T06:35:18.000Z,8.97
2022-11-10T06:36:18.000Z,8.93
2022-11-10T06:37:18.000Z,8.94
2022-11-10T06:38:18.000Z,8.91
2022-11-10T06:39:18.000Z,8.88
2022-11-10T06:40:18.000Z,8.86
2022-11-10T06:41:18.000Z,8.88
2022-11-10T06:42:18.000Z,8.83
2022-11-10T06:43:18.000Z,8.83
2022-11-10T06:44:18.000Z,8.86
2022-11-10T06:45:18.000Z,8.83
2022-11-10T06:46:18.000Z,8.80
2022-11-10T06:47:18.000Z,8.82
2022-11-10T06:48:18.000Z,8.82
2022-11-10T06:49:18.000Z,8.79
2022-11-10T06:50:18.000Z,8.83
2022-11-10T06:51:18.000Z,8.78
2022-11-10T06:52:18.000Z,8.79
2022-11-10T06:53:18.000Z,8.79
2022-11-10T06:54:18.000Z,8.79
2022-11-10T06:55:18.000Z,8.80
2022-11-10T06:56:18.000Z,8.78
2022-11-10T06:57:18.000Z,8.75
2022-11-10T06:58:18.000Z,8.76
2022-11-10T06:59:18.000Z,8.75
2022-11-10T07:00:17.000Z,8.75
2022-11-10T07:01:17.000Z,8.73
2022-11-10T07:02:17.000Z,8.76
2022-11-10T07:03:17.000Z,8.78
2022-11-10T07:04:17.000Z,8.79
2022-11-10T07:05:17.000Z,8.79
2022-11-10T07:06:17.000Z,8.79
2022-11-10T07:07:17.000Z,8.78
2022-11-10T07:08:17.000Z,8.79
2022-11-10T07:09:17.000Z,8.83
2022-11-10T07:10:17.000Z,8.80
2022-11-10T07:11:17.000Z,8.83
2022-11-10T07:12:17.000Z,8.88
2022-11-10T07:13:17.000Z,8.83
2022-11-10T07:14:17.000Z,8.88
2022-11-10T07:15:17.000Z,8.88
2022-11-10T07:16:17.000Z,8.88
2022-11-10T07:17:17.000Z,8.91
2022-11-10T07:18:17.000Z,8.89
2022-11-10T07:19:17.000Z,8.96
2022-11-10T07:20:17.000Z,8.94
2022-11-10T07:21:17.000Z,8.97
2022-11-10T07:22:17.000Z,9.00
2022-11-10T07:23:17.000Z,9.03
2022-11-10T07:24:17.000Z,9.04
2022-11-10T07:25:17.000Z,9.06
2022-11-10T07:26:17.000Z,9.10
2022-11-10T07:27:17.000Z,9.10
2022-11-10T07:28:17.000Z,9.12
2022-11-10T07:29:17.000Z,9.12
2022-11-10T07:30:17.000Z,9.17
2022-11-10T07:31:17.000Z,9.20
2022-11-10T07:32:17.000Z,9.20
2022-11-10T07:33:17.000Z,9.23
2022-11-10T07:34:17.000Z,9.30
2022-11-10T07:35:17.000Z,9.31
2022-11-10T07:36:17.000Z,9.32
2022-11-10T07:37:17.000Z,9.32
2022-11-10T07:38:17.000Z,9.37
2022-11-10T07:39:17.000Z,9.40
2022-11-10T07:40:17.000Z,9.42
2022-11-10T07:41:17.000Z,9.48
2022-11-10T07:42:17.000Z,9.48
2022-11-10T07:43:17.000Z,9.53
2022-11-10T07:44:17.000Z,9.53
2022-11-10T07:45:17.000Z,9.59
2022-11-10T07:46:17.000Z,9.58
2022-11-10T07:47:17.000Z,9.62
2022-11-10T07:48:17.000Z,9.65
2022-11-10T07:49:17.000Z,9.68
2022-11-10T07:50:17.000Z,9.71
2022-11-10T07:51:17.000Z,9.74
2022-11-10T07:52:17.000Z,9.77
2022-11-10T07:53:17.000Z,9.78
2022-11-10T07:54:17.000Z,9.80
2022-11-10T07:55:17.000Z,9.85
2022-11-10T07:56:17.000Z,9.89
2022-11-10T07:57:17.000Z,9.91
2022-11-10T07:58:17.000Z,9.96
2022-11-10T07:59:17.000Z,9.98
2022-11-10T08:00:17.000Z,10.06
2022-11-10T08:01:17.000Z,10.09
2022-11-10T08:02:17.000Z,10.09
2022-11-10T08:03:17.000Z,10.11
2022-11-10T08:04:17.000Z,10.14
2022-11-10T08:05:17.000Z,10.16
2022-11-10T08:06:17.000Z,10.14
2022-11-10T08:07:17.000Z,10.24
2022-11-10T08:08:17.000Z,10.24
2022-11-10T08:09:17.000Z,10.24
2022-11-10T08:10:17.000Z,10.31
2022-11-10T08:11:17.000Z,10.31
2022-11-10T08:12:17.000Z,10.34
2022-11-10T08:13:17.000Z,10.35
2022-11-10T08:14:16.000Z,10.38
2022-11-10T08:15:16.000Z,10.42
2022-11-10T08:16:16.000Z,10.43
2022-11-10T08:17:16.000Z,10.46
2022-11-10T08:18:16.000Z,10.51
2022-11-10T08:19:16.000Z,10.55
2022-11-10T08:20:16.000Z,10.60
2022-11-10T08:21:16.000Z,10.63
2022-11-10T08:22:16.000Z,10.69
2022-11-10T08:23:16.000Z,10.73
2022-11-10T08:24:16.000Z,10.76
2022-11-10T08:25:16.000Z,10.80
2022-11-10T08:26:16.000Z,10.86
2022-11-10T08:27:16.000Z,10.91
2022-11-10T08:28:16.000Z,10.95
2022-11-10T08:29:16.000Z,11.01
2022-11-10T08:30:16.000Z,11.03
2022-11-10T08:31:16.000Z,11.08
2022-11-10T08:32:16.000Z,11.16
2022-11-10T08:33:16.000Z,11.17
2022-11-10T08:34:16.000Z,11.20
2022-11-10T08:35:16.000Z,11.23
2022-11-10T08:36:16.000Z,11.30
2022-11-10T08:37:16.000Z,11.27
2022-11-10T08:38:16.000Z,11.28
2022-11-10T08:39:16.000Z,11.27
2022-11-10T08:40:16.000Z,11.27
2022-11-10T08:41:16.000Z,11.30
2022-11-10T08:42:16.000Z,11.23
2022-11-10T08:43:16.000Z,11.24
2022-11-10T08:44:16.000Z,11.23
2022-11-10T08:45:16.000Z,11.23
2022-11-10T08:46:16.000Z,11.21
2022-11-10T08:47:16.000Z,11.20
2022-11-10T08:48:16.000Z,11.17
2022-11-10T08:49:16.000Z,11.19
2022-11-10T08:50:16.000Z,11.17
2022-11-10T08:51:16.000Z,11.16
2022-11-10T08:52:16.000Z,11.20
2022-11-10T08:53:16.000Z,11.19
2022-11-10T08:54:16.000Z,11.17
2022-11-10T08:55:16.000Z,11.20
2022-11-10T08:56:16.000Z,11.21
2022-11-10T08:57:16.000Z,11.21
2022-11-10T08:58:16.000Z,11.27
2022-11-10T08:59:16.000Z,11.28
2022-11-10T09:00:16.000Z,11.35
2022-11-10T09:01:16.000Z,11.39
2022-11-10T09:02:16.000Z,11.46
2022-11-10T09:03:16.000Z,11.54
2022-11-10T09:04:16.000Z,11.60
2022-11-10T09:05:16.000Z,11.67
2022-11-10T09:06:16.000Z,11.75
2022-11-10T09:07:16.000Z,11.78
2022-11-10T09:08:16.000Z,11.81
2022-11-10T09:09:16.000Z,11.84
2022-11-10T09:10:16.000Z,11.88
2022-11-10T09:11:16.000Z,11.87
2022-11-10T09:12:16.000Z,11.87
2022-11-10T09:13:16.000Z,11.82
2022-11-10T09:14:16.000Z,11.82
2022-11-10T09:15:16.000Z,11.81
2022-11-10T09:16:16.000Z,11.82
2022-11-10T09:17:16.000Z,11.84
2022-11-10T09:18:16.000Z,11.85
2022-11-10T09:19:16.000Z,11.93
2022-11-10T09:20:16.000Z,11.97
2022-11-10T09:21:16.000Z,12.04
2022-11-10T09:22:15.000Z,12.04
2022-11-10T09:23:15.000Z,12.13
2022-11-10T09:24:15.000Z,12.21
2022-11-10T09:25:15.000Z,12.26
2022-11-10T09:26:15.000Z,12.33
2022-11-10T09:27:15.000Z,12.41
2022-11-10T09:28:15.000Z,12.49
2022-11-10T09:29:15.000Z,12.55
2022-11-10T09:30:15.000Z,12.66
2022-11-10T09:31:15.000Z,12.70
2022-11-10T09:32:15.000Z,12.81
2022-11-10T09:33:15.000Z,12.84
2022-11-10T09:34:15.000Z,12.91
2022-11-10T09:35:15.000Z,12.96
2022-11-10T09:36:15.000Z,12.99
2022-11-10T09:37:15.000Z,13.04
2022-11-10T09:38:15.000Z,13.03
2022-11-10T09:39:15.000Z,13.01
2022-11-10T09:40:15.000Z,12.99
2022-11-10T09:41:15.000Z,13.03
2022-11-10T09:42:15.000Z,13.04
2022-11-10T09:43:15.000Z,13.12
2022-11-10T09:44:15.000Z,13.19
2022-11-10T09:45:15.000Z,13.22
2022-11-10T09:46:15.000Z,13.32
2022-11-10T09:47:15.000Z,13.36
2022-11-10T09:48:15.000Z,13.43
2022-11-10T09:49:15.000Z,13.48
2022-11-10T09:50:15.000Z,13.53
2022-11-10T09:51:15.000Z,13.55
2022-11-10T09:52:15.000Z,13.59
2022-11-10T09:53:15.000Z,13.62
2022-11-10T09:54:15.000Z,13.62
2022-11-10T09:55:15.000Z,13.65
2022-11-10T09:56:15.000Z,13.63
2022-11-10T09:57:15.000Z,13.62
2022-11-10T09:58:15.000Z,13.54
2022-11-10T09:59:15.000Z,13.47
2022-11-10T10:00:15.000Z,13.47
2022-11-10T10:01:15.000Z,13.44
2022-11-10T10:02:15.000Z,13.48
2022-11-10T10:03:15.000Z,13.39
2022-11-10T10:04:15.000Z,13.38
2022-11-10T10:05:15.000Z,13.39
2022-11-10T10:06:15.000Z,13.36
2022-11-10T10:07:15.000Z,13.41
2022-11-10T10:08:15.000Z,13.43
2022-11-10T10:09:15.000Z,13.44
2022-11-10T10:10:15.000Z,13.46
2022-11-10T10:11:15.000Z,13.43
2022-11-10T10:12:15.000Z,13.44
2022-11-10T10:13:15.000Z,13.50
2022-11-10T10:14:15.000Z,13.51
2022-11-10T10:15:15.000Z,13.53
2022-11-10T10:16:15.000Z,13.59
2022-11-10T10:17:15.000Z,13.61
2022-11-10T10:18:15.000Z,13.63
2022-11-10T10:19:15.000Z,13.66
2022-11-10T10:20:15.000Z,13.66
2022-11-10T10:21:15.000Z,13.69
2022-11-10T10:22:15.000Z,13.72
2022-11-10T10:23:15.000Z,13.73
2022-11-10T10:24:15.000Z,13.72
2022-11-10T10:25:15.000Z,13.75
2022-11-10T10:26:15.000Z,13.79
2022-11-10T10:27:15.000Z,13.83
2022-11-10T10:28:15.000Z,13.90
2022-11-10T10:29:15.000Z,13.90
2022-11-10T10:30:15.000Z,13.94
2022-11-10T10:31:15.000Z,13.98
2022-11-10T10:32:15.000Z,14.06
2022-11-10T10:33:15.000Z,14.11
2022-11-10T10:34:15.000Z,14.13
2022-11-10T10:35:14.000Z,14.19
2022-11-10T10:36:14.000Z,14.21
2022-11-10T10:37:14.000Z,14.31
2022-11-10T10:38:14.000Z,14.41
2022-11-10T10:39:14.000Z,14.52
2022-11-10T10:40:14.000Z,14.57
2022-11-10T10:41:14.000Z,14.66
2022-11-10T10:42:14.000Z,14.75
2022-11-10T10:43:14.000Z,14.85
2022-11-10T10:44:14.000Z,14.79
2022-11-10T10:45:14.000Z,14.87
2022-11-10T10:46:14.000Z,14.98
2022-11-10T10:47:14.000Z,15.12
2022-11-10T10:48:14.000Z,15.19
2022-11-10T10:49:14.000Z,15.23
2022-11-10T10:50:14.000Z,15.25
2022-11-10T10:51:14.000Z,15.28
2022-11-10T10:52:14.000Z,15.25
2022-11-10T10:53:14.000Z,15.31
2022-11-10T10:54:14.000Z,15.31
2022-11-10T10:55:14.000Z,15.31
2022-11-10T10:56:14.000Z,15.35
2022-11-10T10:57:14.000Z,15.38
2022-11-10T10:58:14.000Z,15.43
2022-11-10T10:59:14.000Z,15.41
2022-11-10T11:00:14.000Z,15.41
2022-11-10T11:01:14.000Z,15.37
2022-11-10T11:02:14.000Z,15.35
2022-11-10T11:03:14.000Z,15.40
2022-11-10T11:04:14.000Z,15.33
2022-11-10T11:05:14.000Z,15.35
2022-11-10T11:06:14.000Z,15.40
2022-11-10T11:07:14.000Z,15.52
2022-11-10T11:08:14.000Z,15.59
2022-11-10T11:09:14.000Z,15.71
2022-11-10T11:10:14.000Z,15.62
2022-11-10T11:11:14.000Z,15.73
2022-11-10T11:12:14.000Z,15.88
2022-11-10T11:13:14.000Z,15.92
2022-11-10T11:14:14.000Z,15.95
2022-11-10T11:15:14.000Z,16.03
2022-11-10T11:16:14.000Z,16.06
2022-11-10T11:17:14.000Z,15.88
2022-11-10T11:18:14.000Z,15.86
2022-11-10T11:19:14.000Z,15.64
2022-11-10T11:20:14.000Z,15.68
2022-11-10T11:21:14.000Z,15.81
2022-11-10T11:22:14.000Z,15.95
2022-11-10T11:23:14.000Z,16.03
2022-11-10T11:24:14.000Z,16.07
2022-11-10T11:25:14.000Z,16.18
2022-11-10T11:26:14.000Z,16.22
2022-11-10T11:27:14.000Z,16.14
2022-11-10T11:28:14.000Z,16.04
2022-11-10T11:29:14.000Z,15.91
2022-11-10T11:30:14.000Z,15.68
2022-11-10T11:31:14.000Z,15.67
2022-11-10T11:32:14.000Z,15.62
2022-11-10T11:33:14.000Z,15.43
2022-11-10T11:34:14.000Z,15.37
2022-11-10T11:35:14.000Z,15.25
2022-11-10T11:36:14.000Z,15.13
2022-11-10T11:37:14.000Z,15.07
2022-11-10T11:38:14.000Z,15.20
2022-11-10T11:39:14.000Z,15.38
2022-11-10T11:40:14.000Z,15.62
2022-11-10T11:41:14.000Z,15.81
2022-11-10T11:42:14.000Z,16.04
2022-11-10T11:43:14.000Z,16.27
2022-11-10T11:44:14.000Z,16.41
2022-11-10T11:45:14.000Z,16.44
2022-11-10T11:46:14.000Z,16.51
2022-11-10T11:47:14.000Z,16.44
2022-11-10T11:48:14.000Z,16.36
2022-11-10T11:49:13.000Z,16.33
2022-11-10T11:50:13.000Z,16.34
2022-11-10T11:51:13.000Z,16.40
2022-11-10T11:52:13.000Z,16.36
2022-11-10T11:53:13.000Z,16.30
2022-11-10T11:54:13.000Z,16.22
2022-11-10T11:55:13.000Z,16.16
2022-11-10T11:56:13.000Z,16.14
2022-11-10T11:57:13.000Z,15.98
2022-11-10T11:58:13.000Z,15.86
2022-11-10T11:59:13.000Z,15.92
2022-11-10T12:00:13.000Z,15.96
2022-11-10T12:01:13.000Z,15.99
2022-11-10T12:02:13.000Z,16.01
2022-11-10T12:03:13.000Z,16.08
2022-11-10T12:04:13.000Z,16.22
2022-11-10T12:05:13.000Z,16.30
2022-11-10T12:06:13.000Z,16.36
2022-11-10T12:07:13.000Z,16.34
2022-11-10T12:08:13.000Z,16.30
2022-11-10T12:09:13.000Z,16.33
2022-11-10T12:10:13.000Z,16.34
2022-11-10T12:11:13.000Z,16.34
2022-11-10T12:12:13.000Z,16.36
2022-11-10T12:13:13.000Z,16.34
2022-11-10T12:14:13.000Z,16.36
2022-11-10T12:15:13.000Z,16.29
2022-11-10T12:16:13.000Z,16.32
2022-11-10T12:17:13.000Z,16.44
2022-11-10T12:18:13.000Z,16.51
2022-11-10T12:19:13.000Z,16.48
2022-11-10T12:20:13.000Z,16.50
2022-11-10T12:21:13.000Z,16.51
2022-11-10T12:22:13.000Z,16.60
2022-11-10T12:23:13.000Z,16.75
2022-11-10T12:24:13.000Z,16.82
2022-11-10T12:25:13.000Z,16.73
2022-11-10T12:26:13.000Z,16.63
2022-11-10T12:27:13.000Z,16.52
2022-11-10T12:28:13.000Z,16.29
2022-11-10T12:29:13.000Z,16.22
2022-11-10T12:30:13.000Z,16.27
2022-11-10T12:31:13.000Z,16.37
2022-11-10T12:32:13.000Z,16.40
2022-11-10T12:33:13.000Z,16.33
2022-11-10T12:34:13.000Z,16.27
2022-11-10T12:35:13.000Z,16.13
2022-11-10T12:36:13.000Z,15.99
2022-11-10T12:37:13.000Z,15.81
2022-11-10T12:38:13.000Z,15.62
2022-11-10T12:39:13.000Z,15.55
2022-11-10T12:40:13.000Z,15.52
2022-11-10T12:41:13.000Z,15.52
2022-11-10T12:42:13.000Z,15.58
2022-11-10T12:43:13.000Z,15.59
2022-11-10T12:44:13.000Z,15.62
2022-11-10T12:45:13.000Z,15.67
2022-11-10T12:46:13.000Z,15.68
2022-11-10T12:47:13.000Z,15.71
2022-11-10T12:48:13.000Z,15.70
2022-11-10T12:49:13.000Z,15.67
2022-11-10T12:50:13.000Z,15.64
2022-11-10T12:57:30.000Z,15.51
2022-11-10T12:57:30.000Z,15.64
2022-11-10T12:58:30.000Z,15.40
2022-11-10T12:59:30.000Z,15.43
2022-11-10T13:00:30.000Z,15.35
2022-11-10T13:13:05.000Z,14.94
2022-11-10T13:13:05.000Z,14.90
2022-11-10T13:14:05.000Z,14.94
2022-11-10T13:15:05.000Z,15.03
2022-11-10T13:16:05.000Z,15.03
2022-11-10T13:17:05.000Z,15.00